Time;durP1;ratioP1;P1;durP2;ratioP2;P2;SDS_P1;SDS_P2;PMS_P1;PMS_P2;Temp;Humidity;BMP_temperature;BMP_pressure;BME280_temperature;BME280_humidity;BME280_pressure;Samples;Min_cycle;Max_cycle;Signal;HPM_P1;HPM_P2
2024/02/12 00:01:29;;;;;;;;;3.67;3.00;;;;;;;;5081271;27;45216;-76
2024/02/12 00:03:55;;;;;;;;;6.33;4.00;;;;;;;;5070306;27;45291;-76
2024/02/12 00:06:21;;;;;;;;;2.67;2.67;;;;;;;;5060944;28;45230;-77
2024/02/12 00:08:46;;;;;;;;;4.00;3.00;;;;;;;;5060479;28;45273;-76
2024/02/12 00:11:11;;;;;;;;;3.33;3.33;;;;;;;;5060091;28;45449;-76
2024/02/12 00:13:38;;;;;;;;;2.67;2.67;;;;;;;;5060947;28;45189;-76
2024/02/12 00:16:05;;;;;;;;;4.33;3.00;;;;;;;;5060829;28;45525;-77
2024/02/12 00:18:31;;;;;;;;;6.00;4.00;;;;;;;;5060874;28;45326;-76
2024/02/12 00:20:56;;;;;;;;;6.67;4.00;;;;;;;;5060800;28;45335;-76
2024/02/12 00:23:22;;;;;;;;;4.00;4.00;;;;;;;;5060675;28;45464;-76
2024/02/12 00:25:47;;;;;;;;;3.00;3.00;;;;;;;;5060669;28;45353;-76
2024/02/12 00:28:12;;;;;;;;;3.00;3.00;;;;;;;;5061169;28;45440;-77
2024/02/12 00:30:39;;;;;;;;;7.33;5.00;;;;;;;;5060438;28;45268;-77
2024/02/12 00:33:04;;;;;;;;;3.00;2.67;;;;;;;;5060723;28;45381;-76
2024/02/12 00:35:30;;;;;;;;;3.33;3.33;;;;;;;;5059344;28;45908;-76
2024/02/12 00:37:55;;;;;;;;;4.67;4.00;;;;;;;;5060888;28;45288;-76
2024/02/12 00:40:21;;;;;;;;;5.00;4.00;;;;;;;;5060445;28;46166;-76
2024/02/12 00:42:48;;;;;;;;;4.00;4.00;;;;;;;;5060555;28;45429;-76
2024/02/12 00:45:14;;;;;;;;;4.33;4.33;;;;;;;;5058897;28;45370;-76
2024/02/12 00:47:40;;;;;;;;;4.00;4.00;;;;;;;;5059180;28;45389;-76
2024/02/12 00:50:05;;;;;;;;;3.67;2.67;;;;;;;;5060192;28;46160;-77
2024/02/12 00:52:33;;;;;;;;;5.00;4.00;;;;;;;;5060089;28;46525;-77
2024/02/12 00:54:58;;;;;;;;;3.00;2.00;;;;;;;;5059311;28;45217;-77
2024/02/12 00:57:23;;;;;;;;;3.67;3.00;;;;;;;;5067120;28;45468;-77
2024/02/12 00:59:49;;;;;;;;;3.33;3.33;;;;;;;;5080413;28;45259;-77
2024/02/12 01:02:14;;;;;;;;;6.33;5.33;;;;;;;;5080486;27;46299;-77
2024/02/12 01:04:39;;;;;;;;;4.00;3.00;;;;;;;;5079176;28;45264;-77
2024/02/12 01:07:05;;;;;;;;;4.00;2.67;;;;;;;;5080488;27;45148;-76
2024/02/12 01:09:30;;;;;;;;;4.33;4.00;;;;;;;;5079086;28;46981;-76
2024/02/12 01:11:56;;;;;;;;;5.00;4.00;;;;;;;;5078869;28;47216;-77
2024/02/12 01:14:21;;;;;;;;;4.00;4.00;;;;;;;;5080251;27;45323;-77
2024/02/12 01:16:46;;;;;;;;;4.00;4.00;;;;;;;;5080354;27;45349;-77
2024/02/12 01:19:11;;;;;;;;;4.00;3.33;;;;;;;;5080180;27;45347;-77
2024/02/12 01:21:37;;;;;;;;;6.00;5.00;;;;;;;;5080268;27;45444;-77
2024/02/12 01:24:02;;;;;;;;;4.00;4.00;;;;;;;;5080282;27;45373;-77
2024/02/12 01:26:27;;;;;;;;;3.33;3.33;;;;;;;;5080313;28;45340;-77
2024/02/12 01:28:53;;;;;;;;;4.33;4.33;;;;;;;;5080140;28;45393;-77
2024/02/12 01:31:18;;;;;;;;;5.00;4.00;;;;;;;;5079793;27;47412;-76
2024/02/12 01:33:46;;;;;;;;;4.00;4.00;;;;;;;;5080171;27;45456;-76
2024/02/12 01:36:13;;;;;;;;;2.33;2.00;;;;;;;;5064386;28;45406;-76
2024/02/12 01:38:38;;;;;;;;;4.33;4.00;;;;;;;;5059367;28;45303;-76
2024/02/12 01:41:03;;;;;;;;;4.33;4.33;;;;;;;;5057966;28;47235;-76
2024/02/12 01:43:31;;;;;;;;;3.67;3.67;;;;;;;;5059670;28;45307;-76
2024/02/12 01:46:00;;;;;;;;;3.00;3.00;;;;;;;;5058194;28;45365;-76
2024/02/12 01:48:26;;;;;;;;;2.00;2.00;;;;;;;;5059607;28;45330;-77
2024/02/12 01:50:52;;;;;;;;;3.00;3.00;;;;;;;;5059352;28;46115;-77
2024/02/12 01:53:18;;;;;;;;;5.00;5.00;;;;;;;;5059282;28;45369;-76
2024/02/12 01:55:45;;;;;;;;;6.33;3.00;;;;;;;;5058343;28;45259;-76
2024/02/12 01:58:11;;;;;;;;;5.00;5.00;;;;;;;;5074026;28;45322;-76
2024/02/12 02:00:37;;;;;;;;;3.67;3.67;;;;;;;;5079437;28;45295;-77
2024/02/12 02:03:02;;;;;;;;;5.33;5.33;;;;;;;;5061034;27;45476;-77
2024/02/12 02:05:27;;;;;;;;;5.00;5.00;;;;;;;;5059161;28;45304;-76
2024/02/12 02:07:53;;;;;;;;;5.00;3.33;;;;;;;;5064975;28;45394;-76
2024/02/12 02:10:19;;;;;;;;;3.00;3.00;;;;;;;;5065916;28;46072;-76
2024/02/12 02:12:46;;;;;;;;;3.67;3.00;;;;;;;;5066046;28;45299;-76
2024/02/12 02:15:12;;;;;;;;;3.33;3.33;;;;;;;;5065890;28;45358;-76
2024/02/12 02:17:39;;;;;;;;;5.00;4.67;;;;;;;;5064429;28;45551;-76
2024/02/12 02:20:07;;;;;;;;;5.00;4.00;;;;;;;;5065647;28;46382;-76
2024/02/12 02:22:32;;;;;;;;;3.33;3.33;;;;;;;;5065827;28;45324;-76
2024/02/12 02:24:58;;;;;;;;;6.67;3.00;;;;;;;;5065916;28;45249;-76
2024/02/12 02:27:24;;;;;;;;;4.00;3.33;;;;;;;;5065725;28;46063;-76
2024/02/12 02:29:49;;;;;;;;;3.33;3.33;;;;;;;;5065423;28;45902;-76
2024/02/12 02:32:14;;;;;;;;;6.00;5.00;;;;;;;;5065909;28;45348;-77
2024/02/12 02:34:40;;;;;;;;;3.00;3.00;;;;;;;;5065835;28;45287;-76
2024/02/12 02:37:05;;;;;;;;;4.00;4.00;;;;;;;;5065658;28;45302;-77
2024/02/12 02:39:30;;;;;;;;;3.00;3.00;;;;;;;;5065673;28;45432;-76
2024/02/12 02:41:57;;;;;;;;;3.33;3.33;;;;;;;;5065756;28;45389;-77
2024/02/12 02:44:22;;;;;;;;;3.67;3.67;;;;;;;;5065582;28;45361;-76
2024/02/12 02:46:47;;;;;;;;;4.00;4.00;;;;;;;;5065585;28;45399;-76
2024/02/12 02:49:14;;;;;;;;;5.00;4.00;;;;;;;;5065411;28;45262;-76
2024/02/12 02:51:40;;;;;;;;;5.67;4.00;;;;;;;;5063943;28;45274;-76
2024/02/12 02:54:08;;;;;;;;;3.00;3.00;;;;;;;;5065672;28;45230;-76
2024/02/12 02:56:34;;;;;;;;;5.00;4.00;;;;;;;;5066542;28;45331;-77
2024/02/12 02:58:59;;;;;;;;;3.67;3.67;;;;;;;;5085298;27;47268;-76
2024/02/12 03:01:25;;;;;;;;;5.67;3.33;;;;;;;;5085798;28;45298;-76
2024/02/12 03:03:51;;;;;;;;;10.33;4.00;;;;;;;;5085720;27;45377;-76
2024/02/12 03:06:17;;;;;;;;;4.33;1.00;;;;;;;;5085673;27;45388;-76
2024/02/12 03:08:42;;;;;;;;;3.33;3.00;;;;;;;;5084068;28;46505;-76
2024/02/12 03:11:07;;;;;;;;;4.33;3.67;;;;;;;;5085749;27;45373;-77
2024/02/12 03:13:36;;;;;;;;;3.00;3.00;;;;;;;;5085700;28;45317;-76
2024/02/12 03:16:01;;;;;;;;;3.00;3.00;;;;;;;;5085213;28;45482;-76
2024/02/12 03:18:29;;;;;;;;;3.33;3.00;;;;;;;;5082505;27;46502;-76
2024/02/12 03:20:55;;;;;;;;;3.67;3.67;;;;;;;;5082275;27;45395;-77
2024/02/12 03:23:21;;;;;;;;;4.33;4.33;;;;;;;;5082272;27;45463;-77
2024/02/12 03:25:46;;;;;;;;;3.33;2.33;;;;;;;;5080515;28;45388;-76
2024/02/12 03:28:12;;;;;;;;;2.33;2.33;;;;;;;;5082001;28;46269;-76
2024/02/12 03:30:37;;;;;;;;;3.67;2.00;;;;;;;;5081935;27;45319;-76
2024/02/12 03:33:02;;;;;;;;;3.00;3.00;;;;;;;;5080860;28;45384;-77
2024/02/12 03:35:31;;;;;;;;;1.67;0.33;;;;;;;;5080560;28;45927;-76
2024/02/12 03:37:57;;;;;;;;;2.67;2.67;;;;;;;;5080403;28;47494;-76
2024/02/12 03:40:27;;;;;;;;;4.67;4.67;;;;;;;;5060999;27;45346;-76
2024/02/12 03:42:53;;;;;;;;;2.67;2.67;;;;;;;;5060108;28;45330;-76
2024/02/12 03:45:19;;;;;;;;;2.67;2.67;;;;;;;;5060945;28;45263;-76
2024/02/12 03:47:45;;;;;;;;;3.33;3.33;;;;;;;;5060235;28;47129;-76
2024/02/12 04:01:11;;;;;;;;;4.00;2.00;;;;;;;;5081308;28;45209;-76
2024/02/12 04:03:36;;;;;;;;;2.33;2.33;;;;;;;;5081516;28;45160;-76
2024/02/12 04:06:04;;;;;;;;;4.25;4.00;;;;;;;;5081740;27;45207;-76
2024/02/12 04:08:29;;;;;;;;;3.00;2.00;;;;;;;;5081211;27;45322;-76
2024/02/12 04:10:55;;;;;;;;;1.33;1.33;;;;;;;;5081494;27;45293;-76
2024/02/12 04:13:22;;;;;;;;;2.67;2.33;;;;;;;;5081535;27;45299;-76
2024/02/12 04:15:48;;;;;;;;;2.00;2.00;;;;;;;;5079543;28;45421;-77
2024/02/12 04:18:13;;;;;;;;;1.33;1.33;;;;;;;;5081017;28;46116;-76
2024/02/12 04:20:39;;;;;;;;;2.67;2.67;;;;;;;;5080999;27;45329;-77
2024/02/12 04:23:06;;;;;;;;;4.33;3.67;;;;;;;;5081451;27;45301;-76
2024/02/12 04:25:33;;;;;;;;;5.00;4.00;;;;;;;;5080851;27;45281;-76
2024/02/12 04:28:01;;;;;;;;;3.00;3.00;;;;;;;;5079669;28;45529;-76
2024/02/12 04:30:29;;;;;;;;;2.00;2.00;;;;;;;;5080663;27;45392;-77
2024/02/12 04:32:55;;;;;;;;;3.00;3.00;;;;;;;;5080115;28;45288;-76
2024/02/12 04:35:22;;;;;;;;;2.00;2.00;;;;;;;;5080750;27;45255;-76
2024/02/12 04:37:47;;;;;;;;;2.33;2.00;;;;;;;;5080794;27;45177;-77
2024/02/12 04:40:12;;;;;;;;;3.67;3.67;;;;;;;;5080932;28;45442;-76
2024/02/12 04:42:39;;;;;;;;;1.33;1.33;;;;;;;;5081050;27;45235;-76
2024/02/12 04:45:04;;;;;;;;;4.00;2.67;;;;;;;;5079126;28;45574;-76
2024/02/12 04:47:29;;;;;;;;;1.33;1.33;;;;;;;;5079375;28;45512;-76
2024/02/12 04:49:54;;;;;;;;;3.00;3.00;;;;;;;;5079316;28;46286;-76
2024/02/12 04:52:20;;;;;;;;;3.33;2.00;;;;;;;;5080523;27;45302;-76
2024/02/12 04:54:45;;;;;;;;;4.00;3.00;;;;;;;;5080704;27;45386;-76
2024/02/12 04:57:11;;;;;;;;;2.67;2.00;;;;;;;;5072573;28;47643;-76
2024/02/12 04:59:37;;;;;;;;;3.33;2.67;;;;;;;;5058884;28;45210;-76
2024/02/12 05:02:02;;;;;;;;;4.00;2.00;;;;;;;;5060299;28;45349;-76
2024/02/12 05:04:29;;;;;;;;;2.67;2.67;;;;;;;;5060046;28;45379;-77
2024/02/12 05:06:54;;;;;;;;;2.00;2.00;;;;;;;;5060255;28;45489;-77
2024/02/12 05:09:19;;;;;;;;;3.00;3.00;;;;;;;;5058826;28;46093;-77
2024/02/12 05:11:44;;;;;;;;;2.67;2.67;;;;;;;;5060288;28;45283;-77
2024/02/12 05:14:09;;;;;;;;;3.67;3.67;;;;;;;;5059836;28;45532;-76
2024/02/12 05:16:35;;;;;;;;;3.67;3.00;;;;;;;;5060010;28;45982;-76
2024/02/12 05:24:28;;;;;;;;;4.00;4.00;;;;;;;;5059759;28;45172;-76
2024/02/12 05:26:55;;;;;;;;;3.00;2.00;;;;;;;;5059613;28;45207;-77
2024/02/12 05:29:21;;;;;;;;;3.67;3.00;;;;;;;;5059779;28;45310;-76
2024/02/12 05:31:46;;;;;;;;;2.67;2.33;;;;;;;;5059987;28;45333;-77
2024/02/12 05:34:11;;;;;;;;;1.33;1.00;;;;;;;;5059830;28;45806;-76
2024/02/12 05:36:36;;;;;;;;;5.00;5.00;;;;;;;;5059849;28;45317;-76
2024/02/12 05:39:02;;;;;;;;;3.67;3.67;;;;;;;;5059644;28;45201;-76
2024/02/12 05:41:27;;;;;;;;;3.00;2.67;;;;;;;;5057768;28;45382;-76
2024/02/12 05:43:52;;;;;;;;;2.00;2.00;;;;;;;;5059195;28;45449;-76
2024/02/12 05:46:18;;;;;;;;;4.00;4.00;;;;;;;;5059672;28;45573;-76
2024/02/12 05:48:43;;;;;;;;;3.33;3.33;;;;;;;;5059525;28;45402;-76
2024/02/12 05:51:10;;;;;;;;;3.33;3.00;;;;;;;;5059847;28;45508;-77
2024/02/12 05:53:35;;;;;;;;;5.00;4.33;;;;;;;;5059329;28;45461;-76
2024/02/12 05:56:01;;;;;;;;;4.33;3.00;;;;;;;;5059199;28;45428;-76
2024/02/12 05:58:29;;;;;;;;;2.33;1.00;;;;;;;;5076181;28;45349;-76
2024/02/12 06:00:54;;;;;;;;;2.67;2.67;;;;;;;;5079820;27;45230;-76
2024/02/12 06:03:20;;;;;;;;;6.67;4.00;;;;;;;;5073920;27;45290;-76
2024/02/12 06:05:45;;;;;;;;;4.00;2.33;;;;;;;;5059274;28;46597;-76
2024/02/12 06:08:10;;;;;;;;;4.00;2.33;;;;;;;;5058662;28;45283;-76
2024/02/12 06:10:36;;;;;;;;;4.00;4.00;;;;;;;;5059648;28;45296;-76
2024/02/12 06:13:03;;;;;;;;;2.67;2.67;;;;;;;;5059117;28;45493;-77
2024/02/12 06:15:31;;;;;;;;;4.33;3.33;;;;;;;;5057591;28;46433;-76
2024/02/12 06:17:59;;;;;;;;;3.67;3.67;;;;;;;;5057829;28;45533;-75
2024/02/12 06:20:24;;;;;;;;;3.33;3.00;;;;;;;;5057730;28;45308;-76
2024/02/12 06:22:49;;;;;;;;;3.67;2.33;;;;;;;;5058981;28;45213;-75
2024/02/12 06:25:18;;;;;;;;;4.00;3.33;;;;;;;;5057557;28;47073;-76
2024/02/12 06:27:44;;;;;;;;;4.00;3.33;;;;;;;;5059272;28;45439;-76
2024/02/12 06:30:10;;;;;;;;;4.67;4.67;;;;;;;;5058976;28;45340;-76
2024/02/12 06:32:35;;;;;;;;;4.00;4.00;;;;;;;;5057694;28;45929;-76
2024/02/12 06:35:01;;;;;;;;;4.00;3.00;;;;;;;;5057403;28;48034;-76
2024/02/12 06:37:26;;;;;;;;;8.67;4.00;;;;;;;;5057460;28;45373;-75
2024/02/12 06:39:51;;;;;;;;;4.67;4.67;;;;;;;;5059057;28;45525;-76
2024/02/12 06:42:16;;;;;;;;;4.00;4.00;;;;;;;;5057486;28;45399;-76
2024/02/12 06:44:41;;;;;;;;;6.00;5.00;;;;;;;;5058536;28;46670;-75
2024/02/12 06:47:08;;;;;;;;;3.00;3.00;;;;;;;;5058861;28;45297;-76
2024/02/12 06:49:33;;;;;;;;;5.33;5.00;;;;;;;;5058300;28;45283;-76
2024/02/12 06:51:59;;;;;;;;;6.67;4.33;;;;;;;;5058563;28;45376;-76
2024/02/12 06:54:25;;;;;;;;;4.00;4.00;;;;;;;;5061023;28;46316;-76
2024/02/12 06:56:50;;;;;;;;;4.67;3.00;;;;;;;;5065393;28;45141;-75
2024/02/12 06:59:15;;;;;;;;;4.67;3.67;;;;;;;;5082485;27;45203;-75
2024/02/12 07:01:40;;;;;;;;;5.00;5.00;;;;;;;;5082442;28;45474;-75
2024/02/12 07:04:06;;;;;;;;;3.00;3.00;;;;;;;;5082407;27;45292;-76
2024/02/12 07:06:31;;;;;;;;;6.00;5.00;;;;;;;;5082198;28;45229;-77
2024/02/12 07:08:57;;;;;;;;;3.67;3.67;;;;;;;;5082425;27;45343;-79
2024/02/12 07:11:23;;;;;;;;;7.33;5.67;;;;;;;;5082470;27;45593;-77
2024/02/12 07:13:48;;;;;;;;;6.00;5.33;;;;;;;;5081617;27;45773;-77
2024/02/12 07:16:16;;;;;;;;;6.00;5.00;;;;;;;;5081477;28;45396;-77
2024/02/12 07:18:42;;;;;;;;;4.00;4.00;;;;;;;;5082324;27;45504;-77
2024/02/12 07:21:07;;;;;;;;;5.00;5.00;;;;;;;;5082084;27;45295;-79
2024/02/12 07:23:32;;;;;;;;;6.33;6.00;;;;;;;;5082152;27;45460;-79
2024/02/12 07:25:58;;;;;;;;;5.33;5.00;;;;;;;;5082070;27;45376;-79
2024/02/12 07:28:23;;;;;;;;;4.33;3.67;;;;;;;;5082391;27;45330;-79
2024/02/12 07:30:48;;;;;;;;;5.00;5.00;;;;;;;;5081981;27;45313;-79
2024/02/12 07:33:13;;;;;;;;;5.33;5.00;;;;;;;;5082001;27;45363;-79
2024/02/12 07:35:39;;;;;;;;;6.00;6.00;;;;;;;;5071978;27;45311;-79
2024/02/12 07:38:05;;;;;;;;;6.00;5.33;;;;;;;;5060342;28;45354;-79
2024/02/12 07:40:33;;;;;;;;;7.67;7.67;;;;;;;;5061588;28;45300;-79
2024/02/12 07:42:59;;;;;;;;;7.67;5.67;;;;;;;;5061676;28;45377;-80
2024/02/12 07:45:27;;;;;;;;;7.00;6.00;;;;;;;;5060894;28;45377;-80
2024/02/12 07:47:52;;;;;;;;;12.33;9.67;;;;;;;;5060202;28;45386;-80
2024/02/12 07:50:18;;;;;;;;;4.67;4.00;;;;;;;;5061831;28;45314;-79
2024/02/12 07:52:43;;;;;;;;;8.00;7.67;;;;;;;;5061205;28;45405;-80
2024/02/12 07:55:09;;;;;;;;;5.00;5.00;;;;;;;;5060668;28;45296;-77
2024/02/12 07:57:37;;;;;;;;;10.67;10.67;;;;;;;;5071117;28;45269;-78
2024/02/12 08:00:02;;;;;;;;;8.00;7.00;;;;;;;;5081311;27;45504;-80
2024/02/12 08:02:27;;;;;;;;;11.00;10.67;;;;;;;;5080940;28;45293;-79
2024/02/12 08:04:52;;;;;;;;;10.00;10.00;;;;;;;;5080991;27;45195;-80
2024/02/12 08:07:17;;;;;;;;;13.33;12.00;;;;;;;;5081603;27;45245;-80
2024/02/12 08:09:43;;;;;;;;;8.33;6.33;;;;;;;;5081473;27;45413;-80
2024/02/12 08:12:08;;;;;;;;;9.67;7.67;;;;;;;;5081264;27;46404;-80
2024/02/12 08:14:33;;;;;;;;;7.67;6.33;;;;;;;;5081311;27;45390;-80
2024/02/12 08:17:04;;;;;;;;;5.00;3.33;;;;;;;;5081494;27;45472;-80
2024/02/12 08:19:29;;;;;;;;;9.33;7.00;;;;;;;;5080939;27;45423;-79
2024/02/12 08:21:55;;;;;;;;;7.67;7.67;;;;;;;;5079435;28;47862;-79
2024/02/12 08:24:20;;;;;;;;;6.00;6.00;;;;;;;;5079745;28;45333;-78
2024/02/12 08:26:45;;;;;;;;;8.33;7.00;;;;;;;;5079944;27;45310;-79
2024/02/12 08:29:12;;;;;;;;;7.00;7.00;;;;;;;;5081102;27;45352;-79
2024/02/12 08:31:37;;;;;;;;;8.67;8.00;;;;;;;;5081075;27;45250;-79
2024/02/12 08:34:03;;;;;;;;;9.33;7.67;;;;;;;;5080849;27;45122;-79
2024/02/12 08:36:28;;;;;;;;;10.67;10.67;;;;;;;;5081091;27;45318;-79
2024/02/12 08:38:53;;;;;;;;;10.67;10.67;;;;;;;;5080819;28;45369;-79
2024/02/12 08:41:22;;;;;;;;;13.67;12.67;;;;;;;;5080996;27;45621;-79
2024/02/12 08:43:48;;;;;;;;;11.33;11.33;;;;;;;;5079332;28;46064;-79
2024/02/12 08:46:14;;;;;;;;;10.33;10.33;;;;;;;;5079449;28;45369;-79
2024/02/12 08:48:39;;;;;;;;;9.00;8.33;;;;;;;;5068202;27;45996;-79
2024/02/12 08:51:04;;;;;;;;;11.67;10.67;;;;;;;;5058918;28;45693;-79
2024/02/12 08:53:33;;;;;;;;;9.67;9.00;;;;;;;;5059874;28;45397;-79
2024/02/12 08:55:58;;;;;;;;;13.00;9.00;;;;;;;;5059501;28;45384;-79
2024/02/12 08:58:23;;;;;;;;;10.67;8.00;;;;;;;;5056260;28;46556;-78
2024/02/12 09:00:52;;;;;;;;;8.67;8.67;;;;;;;;5059432;28;45402;-79
2024/02/12 09:03:17;;;;;;;;;8.00;8.00;;;;;;;;5060348;28;45374;-79
2024/02/12 09:05:42;;;;;;;;;5.33;3.67;;;;;;;;5058886;28;45267;-77
2024/02/12 09:08:08;;;;;;;;;9.00;9.00;;;;;;;;5060569;28;45295;-80
2024/02/12 09:10:33;;;;;;;;;15.00;11.67;;;;;;;;5060154;28;45365;-79
2024/02/12 09:13:00;;;;;;;;;11.33;11.00;;;;;;;;5060141;28;45303;-78
2024/02/12 09:15:25;;;;;;;;;10.33;10.33;;;;;;;;5058326;28;45347;-78
2024/02/12 09:17:50;;;;;;;;;8.67;8.00;;;;;;;;5059420;28;45216;-80
2024/02/12 09:20:16;;;;;;;;;13.67;13.67;;;;;;;;5060141;28;45265;-79
2024/02/12 09:22:41;;;;;;;;;11.33;9.00;;;;;;;;5058483;28;45246;-79
2024/02/12 09:25:11;;;;;;;;;13.33;11.33;;;;;;;;5059095;28;45363;-80
2024/02/12 09:27:36;;;;;;;;;12.33;11.00;;;;;;;;5059446;28;46476;-82
2024/02/12 09:30:02;;;;;;;;;12.33;11.33;;;;;;;;5059914;28;46269;-78
2024/02/12 09:32:27;;;;;;;;;12.33;12.33;;;;;;;;5059399;28;45444;-79
2024/02/12 09:34:55;;;;;;;;;12.00;12.00;;;;;;;;5059724;28;45283;-79
2024/02/12 09:37:21;;;;;;;;;14.00;12.00;;;;;;;;5058385;28;46480;-79
2024/02/12 09:39:46;;;;;;;;;13.67;12.33;;;;;;;;5059626;28;45306;-79
2024/02/12 09:42:16;;;;;;;;;12.33;10.00;;;;;;;;5060189;28;45283;-79
2024/02/12 09:44:42;;;;;;;;;12.33;10.67;;;;;;;;5060226;28;45414;-79
2024/02/12 09:47:10;;;;;;;;;16.67;13.00;;;;;;;;5059612;28;45533;-79
2024/02/12 09:49:35;;;;;;;;;13.33;12.00;;;;;;;;5058047;28;47367;-79
2024/02/12 09:52:01;;;;;;;;;10.67;10.67;;;;;;;;5059405;28;45407;-78
2024/02/12 09:54:29;;;;;;;;;13.00;13.00;;;;;;;;5059868;28;45333;-80
2024/02/12 09:56:57;;;;;;;;;11.33;11.33;;;;;;;;5064212;28;45271;-79
2024/02/12 09:59:23;;;;;;;;;12.33;10.67;;;;;;;;5082148;27;46125;-79
2024/02/12 10:01:48;;;;;;;;;11.67;11.67;;;;;;;;5081621;27;45285;-78
2024/02/12 10:04:13;;;;;;;;;11.67;11.33;;;;;;;;5079587;28;45475;-78
2024/02/12 10:06:39;;;;;;;;;11.00;10.67;;;;;;;;5080783;27;45224;-78
2024/02/12 10:09:12;;;;;;;;;9.33;8.33;;;;;;;;5082315;28;48334;-79
2024/02/12 10:11:39;;;;;;;;;13.00;13.00;;;;;;;;5084034;27;45336;-79
2024/02/12 10:14:05;;;;;;;;;14.00;11.00;;;;;;;;5083355;27;45318;-78
2024/02/12 10:19:37;;;;;;;;;12.00;9.67;;;;;;;;5084297;28;45779;-78
2024/02/12 10:22:03;;;;;;;;;10.00;10.00;;;;;;;;5085038;27;45352;-79
2024/02/12 10:24:28;;;;;;;;;16.00;12.67;;;;;;;;5078934;27;45362;-79
2024/02/12 10:26:54;;;;;;;;;9.00;7.33;;;;;;;;5048789;28;45407;-79
2024/02/12 10:29:19;;;;;;;;;13.33;13.33;;;;;;;;5061895;28;46437;-79
2024/02/12 10:31:48;;;;;;;;;1.00;1.00;;;;;;;;5062782;28;45658;-80
2024/02/12 10:34:15;;;;;;;;;18.67;15.67;;;;;;;;5064678;28;45705;-79
2024/02/12 10:36:43;;;;;;;;;18.00;15.67;;;;;;;;5064204;28;45286;-79
2024/02/12 10:39:11;;;;;;;;;15.00;14.67;;;;;;;;5062844;28;46352;-82
2024/02/12 10:41:40;;;;;;;;;12.00;12.00;;;;;;;;5064983;28;45278;-81
2024/02/12 10:44:06;;;;;;;;;11.00;11.00;;;;;;;;5062597;28;45295;-81
2024/02/12 10:46:31;;;;;;;;;12.00;11.00;;;;;;;;5061815;28;47156;-82
2024/02/12 10:48:58;;;;;;;;;13.33;13.33;;;;;;;;5061931;28;48214;-83
2024/02/12 10:51:23;;;;;;;;;11.33;11.33;;;;;;;;5061607;28;45374;-80
2024/02/12 10:53:49;;;;;;;;;12.33;11.67;;;;;;;;5061022;28;45315;-80
2024/02/12 10:56:15;;;;;;;;;12.33;11.67;;;;;;;;5063012;28;45366;-80
2024/02/12 10:58:40;;;;;;;;;6.00;6.00;;;;;;;;5081451;28;45478;-80
2024/02/12 11:01:10;;;;;;;;;6.67;6.67;;;;;;;;5082499;28;45528;-80
2024/02/12 11:03:36;;;;;;;;;7.33;7.33;;;;;;;;5083869;27;45357;-79
2024/02/12 11:06:02;;;;;;;;;5.33;5.00;;;;;;;;5083280;27;45204;-79
2024/02/12 11:08:28;;;;;;;;;10.00;10.00;;;;;;;;5081303;28;47331;-79
2024/02/12 11:10:56;;;;;;;;;6.67;6.67;;;;;;;;5082645;27;45357;-79
2024/02/12 11:13:22;;;;;;;;;9.33;8.33;;;;;;;;5081410;28;45386;-78
2024/02/12 11:15:48;;;;;;;;;9.33;9.00;;;;;;;;5083909;27;45353;-79
2024/02/12 11:18:13;;;;;;;;;9.33;9.33;;;;;;;;5082255;28;46487;-79
2024/02/12 11:20:49;;;;;;;;;7.67;7.33;;;;;;;;5082489;27;45244;-80
2024/02/12 11:23:24;;;;;;;;;7.33;7.00;;;;;;;;5081255;28;45472;-78
2024/02/12 11:25:49;;;;;;;;;5.67;5.00;;;;;;;;5082025;27;45302;-79
2024/02/12 11:28:15;;;;;;;;;6.00;6.00;;;;;;;;5081965;27;45701;-78
2024/02/12 11:30:41;;;;;;;;;7.67;6.00;;;;;;;;5081934;27;45260;-79
2024/02/12 11:33:08;;;;;;;;;7.00;6.00;;;;;;;;5083819;27;45298;-78
2024/02/12 11:35:34;;;;;;;;;9.67;8.33;;;;;;;;5081550;28;46981;-79
2024/02/12 11:38:00;;;;;;;;;9.00;7.00;;;;;;;;5085818;27;46096;-77
2024/02/12 11:40:25;;;;;;;;;7.00;5.67;;;;;;;;5083965;27;45399;-78
2024/02/12 11:42:50;;;;;;;;;7.33;6.00;;;;;;;;5085650;27;45350;-78
2024/02/12 11:45:19;;;;;;;;;9.67;9.67;;;;;;;;5084331;27;45676;-77
2024/02/12 11:47:46;;;;;;;;;8.00;8.00;;;;;;;;5084935;28;45346;-77
2024/02/12 11:50:27;;;;;;;;;7.67;7.67;;;;;;;;5084783;27;45297;-77
2024/02/12 11:52:52;;;;;;;;;9.67;6.33;;;;;;;;5082972;27;45340;-76
2024/02/12 11:55:27;;;;;;;;;13.00;10.00;;;;;;;;5081759;27;45437;-77
2024/02/12 11:57:52;;;;;;;;;26.67;25.67;;;;;;;;5067709;28;47448;-77
2024/02/12 12:00:18;;;;;;;;;7.33;7.33;;;;;;;;5060747;28;45316;-77
2024/02/12 12:02:48;;;;;;;;;4.33;4.00;;;;;;;;5061345;28;45365;-77
2024/02/12 12:05:20;;;;;;;;;5.00;5.00;;;;;;;;5059888;28;45448;-77
2024/02/12 12:07:46;;;;;;;;;5.00;5.00;;;;;;;;5060154;28;46282;-76
2024/02/12 12:10:12;;;;;;;;;7.00;7.00;;;;;;;;5059854;28;45673;-77
2024/02/12 12:12:40;;;;;;;;;5.67;5.67;;;;;;;;5061432;28;45266;-76
2024/02/12 12:15:06;;;;;;;;;8.33;6.67;;;;;;;;5060909;28;45485;-77
2024/02/12 12:17:32;;;;;;;;;6.00;5.67;;;;;;;;5060778;28;46410;-76
2024/02/12 12:19:58;;;;;;;;;6.33;5.33;;;;;;;;5059543;28;45341;-77
2024/02/12 12:22:23;;;;;;;;;8.67;8.33;;;;;;;;5061305;28;45253;-77
2024/02/12 12:24:49;;;;;;;;;8.33;7.33;;;;;;;;5060755;28;45327;-77
2024/02/12 12:27:30;;;;;;;;;7.00;6.67;;;;;;;;5060715;28;46210;-76
2024/02/12 12:29:57;;;;;;;;;8.33;7.67;;;;;;;;5060379;28;45295;-77
2024/02/12 12:32:24;;;;;;;;;6.33;6.33;;;;;;;;5061169;28;45372;-77
2024/02/12 12:34:51;;;;;;;;;6.67;6.67;;;;;;;;5060803;28;45353;-77
2024/02/12 12:37:16;;;;;;;;;6.00;6.00;;;;;;;;5060521;28;46375;-77
2024/02/12 12:39:42;;;;;;;;;6.33;6.33;;;;;;;;5060827;28;45243;-78
2024/02/12 12:42:09;;;;;;;;;11.33;9.33;;;;;;;;5060942;28;45309;-79
2024/02/12 12:44:34;;;;;;;;;6.33;6.33;;;;;;;;5060299;28;45493;-80
2024/02/12 12:47:04;;;;;;;;;10.00;9.33;;;;;;;;5059232;28;46718;-79
2024/02/12 12:49:29;;;;;;;;;8.33;8.33;;;;;;;;5060449;28;45431;-79
2024/02/12 12:51:54;;;;;;;;;10.33;10.33;;;;;;;;5060482;28;45302;-79
2024/02/12 12:54:21;;;;;;;;;11.00;10.00;;;;;;;;5060356;28;45314;-79
2024/02/12 12:56:48;;;;;;;;;10.67;10.67;;;;;;;;5063312;28;45339;-79
2024/02/12 12:59:13;;;;;;;;;9.67;8.67;;;;;;;;5079097;28;45452;-79
2024/02/12 13:01:38;;;;;;;;;12.00;12.00;;;;;;;;5080815;27;45365;-77
2024/02/12 13:04:03;;;;;;;;;8.33;8.33;;;;;;;;5078977;28;45977;-78
2024/02/12 13:06:30;;;;;;;;;10.00;10.00;;;;;;;;5079067;28;47283;-79
2024/02/12 13:08:56;;;;;;;;;10.67;9.33;;;;;;;;5079269;28;46123;-80
2024/02/12 13:11:21;;;;;;;;;11.67;9.33;;;;;;;;5080548;27;45256;-79
2024/02/12 13:13:46;;;;;;;;;12.00;11.00;;;;;;;;5080242;27;45516;-77
2024/02/12 13:16:12;;;;;;;;;11.00;11.00;;;;;;;;5078907;28;47071;-78
2024/02/12 13:18:37;;;;;;;;;11.67;11.00;;;;;;;;5078990;28;45314;-78
2024/02/12 13:21:02;;;;;;;;;14.33;12.33;;;;;;;;5080392;27;45317;-79
2024/02/12 13:23:27;;;;;;;;;9.00;9.00;;;;;;;;5080309;27;45401;-80
2024/02/12 13:25:53;;;;;;;;;10.33;10.00;;;;;;;;5078597;28;48214;-78
2024/02/12 13:28:18;;;;;;;;;11.00;11.00;;;;;;;;5080502;27;45346;-80
2024/02/12 13:30:46;;;;;;;;;9.67;9.67;;;;;;;;5079916;27;45326;-79
2024/02/12 13:33:12;;;;;;;;;12.33;12.33;;;;;;;;5060090;28;45409;-80
2024/02/12 13:35:39;;;;;;;;;11.33;11.33;;;;;;;;5057891;28;47283;-78
2024/02/12 13:38:04;;;;;;;;;10.33;10.33;;;;;;;;5058967;28;45463;-78
2024/02/12 13:40:30;;;;;;;;;14.00;12.67;;;;;;;;5059277;28;45310;-79
2024/02/12 13:42:58;;;;;;;;;10.00;9.33;;;;;;;;5059657;28;45297;-78
2024/02/12 13:45:24;;;;;;;;;11.67;10.67;;;;;;;;5057881;28;48962;-78
2024/02/12 13:47:51;;;;;;;;;11.67;11.00;;;;;;;;5059685;28;45357;-78
2024/02/12 13:50:16;;;;;;;;;10.33;9.33;;;;;;;;5059671;28;45326;-77
2024/02/12 13:52:41;;;;;;;;;10.33;9.67;;;;;;;;5059431;28;45425;-78
2024/02/12 13:55:10;;;;;;;;;8.00;8.00;;;;;;;;5059603;28;46240;-79
2024/02/12 13:57:39;;;;;;;;;10.67;10.67;;;;;;;;5067898;28;45469;-80
2024/02/12 14:00:06;;;;;;;;;10.33;10.33;;;;;;;;5079639;27;45433;-79
2024/02/12 14:02:32;;;;;;;;;11.00;9.33;;;;;;;;5079081;27;45172;-78
2024/02/12 14:04:57;;;;;;;;;8.67;7.00;;;;;;;;5079584;27;46039;-79
2024/02/12 14:07:22;;;;;;;;;6.00;6.00;;;;;;;;5079599;27;45423;-79
2024/02/12 14:09:47;;;;;;;;;9.50;8.25;;;;;;;;5079909;27;45306;-79
2024/02/12 14:12:14;;;;;;;;;13.00;9.00;;;;;;;;5079614;27;45234;-79
2024/02/12 14:14:39;;;;;;;;;8.00;8.00;;;;;;;;5079481;27;45397;-80
2024/02/12 14:17:06;;;;;;;;;7.00;5.75;;;;;;;;5078750;27;45329;-78
2024/02/12 14:19:31;;;;;;;;;4.50;4.50;;;;;;;;5077739;27;45299;-79
2024/02/12 14:21:57;;;;;;;;;8.50;7.50;;;;;;;;5078068;27;45353;-79
2024/02/12 14:24:22;;;;;;;;;8.00;7.00;;;;;;;;5079378;27;45410;-79
2024/02/12 14:26:48;;;;;;;;;10.00;8.00;;;;;;;;5076741;28;45442;-80
2024/02/12 14:29:13;;;;;;;;;10.25;10.25;;;;;;;;5079360;27;45207;-79
2024/02/12 14:31:38;;;;;;;;;8.25;8.25;;;;;;;;5079546;27;45396;-80
2024/02/12 14:34:04;;;;;;;;;10.25;7.75;;;;;;;;5079203;27;46180;-80
2024/02/12 14:36:32;;;;;;;;;11.50;10.25;;;;;;;;5057951;27;45327;-78
2024/02/12 14:38:57;;;;;;;;;10.00;10.00;;;;;;;;5057310;28;45424;-78
2024/02/12 14:41:24;;;;;;;;;10.00;10.00;;;;;;;;5056797;28;45687;-79
2024/02/12 14:43:49;;;;;;;;;7.75;7.75;;;;;;;;5056863;28;45463;-79
2024/02/12 14:46:14;;;;;;;;;9.00;9.00;;;;;;;;5055379;28;45420;-80
2024/02/12 14:48:39;;;;;;;;;8.75;7.75;;;;;;;;5057136;28;45330;-80